Terminal Aerodrome Forecast
Issued by NWS

Home | Current Version | Previous Version | Text Only | Print | Product List | Glossary On
Versions: 1 2 3 4 5 6 7 8 9 10 11 12 13
828
FTUS42 TJSJ 281120
TAFJSJ
TAF
TJSJ 281120Z 2812/2912 VRB05KT P6SM VCSH FEW022 SCT100 BKN120
     FM281300 09012KT P6SM VCSH SCT030 BKN100
     FM282330 12005KT P6SM FEW030 BKN080=

USA.gov is the U.S. government's official web portal to all federal, state and local government web resources and services.